createdAt,value
2019-03-29T00:00:47.287Z,23.07
2019-03-29T00:03:22.766Z,23.77
2019-03-29T00:05:56.906Z,23.20
2019-03-29T00:08:30.757Z,23.60
2019-03-29T00:11:06.308Z,23.90
2019-03-29T00:13:40.408Z,23.63
2019-03-29T00:16:14.367Z,23.30
2019-03-29T00:18:48.740Z,22.67
2019-03-29T00:21:23.171Z,20.80
2019-03-29T00:24:06.619Z,21.07
2019-03-29T00:26:32.321Z,22.27
2019-03-29T00:29:06.223Z,21.13
2019-03-29T00:31:40.312Z,21.60
2019-03-29T00:34:14.260Z,20.03
2019-03-29T00:36:51.834Z,21.33
2019-03-29T00:39:26.931Z,19.67
2019-03-29T00:42:00.807Z,17.30
2019-03-29T00:44:34.712Z,18.77
2019-03-29T00:47:10.443Z,19.23
2019-03-29T00:49:44.289Z,19.87
2019-03-29T00:52:19.838Z,21.33
2019-03-29T00:54:54.168Z,18.75
2019-03-29T00:57:29.212Z,19.87
2019-03-29T01:00:02.881Z,20.40
2019-03-29T01:02:36.785Z,20.17
2019-03-29T01:05:11.299Z,21.67
2019-03-29T01:07:45.419Z,20.53
2019-03-29T01:10:19.760Z,20.97
2019-03-29T01:12:53.619Z,21.37
2019-03-29T01:15:27.571Z,21.35
2019-03-29T01:18:01.347Z,22.33
2019-03-29T01:20:36.400Z,22.27
2019-03-29T01:23:10.526Z,22.05
2019-03-29T01:25:46.399Z,20.90
2019-03-29T01:28:21.920Z,22.63
2019-03-29T01:30:55.690Z,22.17
2019-03-29T01:33:31.014Z,23.27
2019-03-29T01:36:06.302Z,21.57
2019-03-29T01:38:42.064Z,20.50
2019-03-29T01:41:16.140Z,21.53
2019-03-29T01:43:49.950Z,22.63
2019-03-29T01:46:24.344Z,22.77
2019-03-29T01:48:58.149Z,21.90
2019-03-29T01:51:31.967Z,22.25
2019-03-29T01:54:05.810Z,21.77
2019-03-29T01:56:40.244Z,21.77
2019-03-29T01:59:16.908Z,21.70
2019-03-29T02:01:50.750Z,23.63
2019-03-29T02:04:24.839Z,23.47
2019-03-29T02:06:58.194Z,23.17
2019-03-29T02:09:32.234Z,23.20
2019-03-29T02:12:07.116Z,22.43
2019-03-29T02:14:41.062Z,22.57
2019-03-29T02:17:15.158Z,24.07
2019-03-29T02:19:49.957Z,23.80
2019-03-29T02:22:24.389Z,23.20
2019-03-29T02:24:57.631Z,22.90
2019-03-29T02:27:31.329Z,24.03
2019-03-29T02:30:06.884Z,22.77
2019-03-29T02:32:40.899Z,22.87
2019-03-29T02:35:16.125Z,22.43
2019-03-29T02:37:49.727Z,22.47
2019-03-29T02:40:23.372Z,22.10
2019-03-29T02:42:56.730Z,21.57
2019-03-29T02:45:30.688Z,21.75
2019-03-29T02:48:06.114Z,21.70
2019-03-29T02:50:39.690Z,21.77
2019-03-29T02:53:13.401Z,22.03
2019-03-29T02:55:48.523Z,22.90
2019-03-29T02:58:22.017Z,23.57
2019-03-29T03:00:57.322Z,20.27
2019-03-29T03:03:30.707Z,21.03
2019-03-29T03:06:04.147Z,26.13
2019-03-29T03:08:37.907Z,19.67
2019-03-29T03:11:11.511Z,21.70
2019-03-29T03:13:46.758Z,21.83
2019-03-29T03:16:20.377Z,20.20
2019-03-29T03:18:55.430Z,20.77
2019-03-29T03:21:28.928Z,18.70
2019-03-29T03:24:02.647Z,19.70
2019-03-29T03:26:36.669Z,19.93
2019-03-29T03:29:13.316Z,19.57
2019-03-29T03:31:47.137Z,20.27
2019-03-29T03:34:21.026Z,19.63
2019-03-29T03:36:54.652Z,20.97
2019-03-29T03:39:32.063Z,19.07
2019-03-29T03:42:03.302Z,18.43
2019-03-29T03:44:36.875Z,19.00
2019-03-29T03:47:12.967Z,18.07
2019-03-29T03:49:46.453Z,17.13
2019-03-29T03:52:23.077Z,17.73
2019-03-29T03:54:54.920Z,17.90
2019-03-29T03:57:31.666Z,17.63
2019-03-29T04:00:06.839Z,18.13
2019-03-29T04:02:40.814Z,17.67
2019-03-29T04:05:15.646Z,17.00
2019-03-29T04:07:49.171Z,19.17
2019-03-29T04:10:24.206Z,19.27
2019-03-29T04:12:58.345Z,18.40
2019-03-29T04:15:32.042Z,19.50
2019-03-29T04:18:05.791Z,18.60
2019-03-29T04:20:39.749Z,17.80
2019-03-29T04:23:13.498Z,16.90
2019-03-29T04:25:47.808Z,17.73
2019-03-29T04:28:22.541Z,17.82
2019-03-29T04:30:56.473Z,18.20
2019-03-29T04:33:30.378Z,19.07
2019-03-29T04:36:04.226Z,18.30
2019-03-29T04:38:38.013Z,18.03
2019-03-29T04:41:11.621Z,21.57
2019-03-29T04:43:46.842Z,20.50
2019-03-29T04:46:34.237Z,22.58
2019-03-29T04:49:08.127Z,22.03
2019-03-29T04:51:46.636Z,20.70
2019-03-29T04:54:20.382Z,21.93
2019-03-29T04:56:56.955Z,20.87
2019-03-29T04:59:30.796Z,21.52
2019-03-29T05:05:08.797Z,19.77
2019-03-29T05:07:40.807Z,18.60
2019-03-29T05:10:21.250Z,21.97
2019-03-29T05:12:50.057Z,18.93
2019-03-29T05:15:23.713Z,19.17
2019-03-29T05:17:58.657Z,20.30
2019-03-29T05:20:33.303Z,18.23
2019-03-29T05:23:06.889Z,20.45
2019-03-29T05:25:43.087Z,18.10
2019-03-29T05:28:16.987Z,18.43
2019-03-29T05:30:50.425Z,15.43
2019-03-29T05:33:24.985Z,19.27
2019-03-29T05:35:59.160Z,23.37
2019-03-29T05:38:32.977Z,21.93
2019-03-29T05:41:07.021Z,18.50
2019-03-29T05:43:41.126Z,22.93
2019-03-29T05:46:14.729Z,20.90
2019-03-29T05:48:48.472Z,21.90
2019-03-29T05:51:24.749Z,21.80
2019-03-29T05:53:58.541Z,20.67
2019-03-29T05:56:33.238Z,21.87
2019-03-29T05:59:07.680Z,22.40
2019-03-29T06:01:41.700Z,20.67
2019-03-29T06:04:16.711Z,20.73
2019-03-29T06:06:51.703Z,22.27
2019-03-29T06:09:25.792Z,19.80
2019-03-29T06:11:59.770Z,20.25
2019-03-29T06:14:34.184Z,18.77
2019-03-29T06:17:09.917Z,18.93
2019-03-29T06:19:44.010Z,17.23
2019-03-29T06:22:17.450Z,17.73
2019-03-29T06:24:50.680Z,18.40
2019-03-29T06:27:24.476Z,17.93
2019-03-29T06:30:09.449Z,16.97
2019-03-29T06:32:42.837Z,16.27
2019-03-29T06:35:17.680Z,17.33
2019-03-29T06:37:51.975Z,16.23
2019-03-29T06:40:31.923Z,15.08
2019-03-29T06:43:05.700Z,15.30
2019-03-29T06:45:47.737Z,13.57
2019-03-29T06:48:15.611Z,13.10
2019-03-29T06:50:49.285Z,12.63
2019-03-29T06:53:23.689Z,13.07
2019-03-29T06:55:59.310Z,12.87
2019-03-29T06:58:33.862Z,11.80
2019-03-29T07:01:07.899Z,10.10
2019-03-29T07:03:41.579Z,10.40
2019-03-29T07:06:15.306Z,11.00
2019-03-29T07:08:49.114Z,9.73
2019-03-29T07:11:22.901Z,9.77
2019-03-29T07:13:58.233Z,8.43
2019-03-29T07:16:32.372Z,8.45
2019-03-29T07:19:06.507Z,8.73
2019-03-29T07:21:40.147Z,8.10
2019-03-29T07:24:13.847Z,8.00
2019-03-29T07:26:47.571Z,8.93
2019-03-29T07:29:21.374Z,8.10
2019-03-29T07:31:55.011Z,8.00
2019-03-29T07:34:30.020Z,8.57
2019-03-29T07:37:05.977Z,7.83
2019-03-29T07:39:39.699Z,8.43
2019-03-29T07:42:13.540Z,7.70
2019-03-29T07:44:47.707Z,7.55
2019-03-29T07:47:22.187Z,8.50
2019-03-29T07:49:57.161Z,9.40
2019-03-29T07:52:31.875Z,9.37
2019-03-29T07:55:06.734Z,8.67
2019-03-29T07:57:40.282Z,7.93
2019-03-29T08:00:14.734Z,8.47
2019-03-29T08:02:48.738Z,8.33
2019-03-29T08:05:24.015Z,7.78
2019-03-29T08:07:58.200Z,7.27
2019-03-29T08:10:34.327Z,8.73
2019-03-29T08:13:09.637Z,12.23
2019-03-29T08:15:43.629Z,12.20
2019-03-29T08:18:17.950Z,12.23
2019-03-29T08:20:51.722Z,14.53
2019-03-29T08:23:28.784Z,17.93
2019-03-29T08:26:03.658Z,17.43
2019-03-29T08:28:39.532Z,18.60
2019-03-29T08:31:13.518Z,18.10
2019-03-29T08:33:47.972Z,18.52
2019-03-29T08:36:22.140Z,17.97
2019-03-29T08:38:56.611Z,16.83
2019-03-29T08:41:32.229Z,17.67
2019-03-29T08:44:06.078Z,19.77
2019-03-29T08:46:41.954Z,14.33
2019-03-29T08:49:17.804Z,17.27
2019-03-29T08:51:52.076Z,17.83
2019-03-29T08:54:26.708Z,17.80
2019-03-29T08:57:00.490Z,17.23
2019-03-29T08:59:34.611Z,17.93
2019-03-29T09:02:08.862Z,15.10
2019-03-29T09:04:42.641Z,15.30
2019-03-29T09:07:17.613Z,14.97
2019-03-29T09:09:52.587Z,14.07
2019-03-29T09:12:26.333Z,13.98
2019-03-29T09:15:03.387Z,13.33
2019-03-29T09:17:35.046Z,13.08
2019-03-29T09:20:10.530Z,12.93
2019-03-29T09:22:44.241Z,13.08
2019-03-29T09:25:20.981Z,13.88
2019-03-29T09:27:54.030Z,13.08
2019-03-29T09:30:30.479Z,13.27
2019-03-29T09:33:06.395Z,12.43
2019-03-29T09:35:42.766Z,11.47
2019-03-29T09:38:17.308Z,13.07
2019-03-29T09:40:58.234Z,12.10
2019-03-29T09:43:26.812Z,11.87
2019-03-29T09:46:03.246Z,10.50
2019-03-29T09:48:36.473Z,10.53
2019-03-29T09:51:11.922Z,10.43
2019-03-29T09:53:46.137Z,10.43
2019-03-29T09:56:20.491Z,11.67
2019-03-29T09:58:57.586Z,10.03
2019-03-29T10:01:35.096Z,9.33
2019-03-29T10:04:09.267Z,9.40
2019-03-29T10:06:44.879Z,9.33
2019-03-29T10:09:26.070Z,10.35
2019-03-29T10:12:00.755Z,9.23
2019-03-29T10:14:37.232Z,9.93
2019-03-29T10:17:11.801Z,9.83
2019-03-29T10:19:49.600Z,9.77
2019-03-29T10:22:27.065Z,11.17
2019-03-29T10:25:02.775Z,10.80
2019-03-29T10:27:37.495Z,12.05
2019-03-29T10:30:14.015Z,12.73
2019-03-29T10:32:49.068Z,12.73
2019-03-29T10:35:24.241Z,12.47
2019-03-29T10:38:00.855Z,13.03
2019-03-29T10:40:36.195Z,13.95
2019-03-29T10:43:12.114Z,14.43
2019-03-29T10:45:53.338Z,14.93
2019-03-29T10:48:30.806Z,14.68
2019-03-29T10:51:08.351Z,15.40
2019-03-29T10:53:46.602Z,14.87
2019-03-29T10:56:33.389Z,16.10
2019-03-29T10:59:05.935Z,16.57
2019-03-29T11:01:45.688Z,16.67
2019-03-29T11:04:27.757Z,16.23
2019-03-29T11:07:05.266Z,16.67
2019-03-29T11:09:53.965Z,17.13
2019-03-29T11:12:29.250Z,16.90
2019-03-29T11:15:06.515Z,18.70
2019-03-29T11:17:47.007Z,17.95
2019-03-29T11:20:21.460Z,19.63
2019-03-29T11:23:14.821Z,19.60
2019-03-29T11:25:50.591Z,19.37
2019-03-29T11:28:24.800Z,20.50
2019-03-29T11:30:59.306Z,20.77
2019-03-29T11:33:33.264Z,20.77
2019-03-29T11:36:08.915Z,20.60
2019-03-29T11:38:42.986Z,18.87
2019-03-29T11:41:17.529Z,19.00
2019-03-29T11:43:52.100Z,19.63
2019-03-29T11:46:25.987Z,20.10
2019-03-29T11:49:00.560Z,19.25
2019-03-29T11:51:35.344Z,19.37
2019-03-29T11:54:09.843Z,18.80
2019-03-29T11:56:47.377Z,20.25
2019-03-29T11:59:22.370Z,19.80
2019-03-29T12:01:57.955Z,19.37
2019-03-29T12:04:32.110Z,19.33
2019-03-29T12:07:07.422Z,19.90
2019-03-29T12:09:42.400Z,19.30
2019-03-29T12:12:23.268Z,19.73
2019-03-29T12:15:04.435Z,20.27
2019-03-29T12:17:40.111Z,20.10
2019-03-29T12:20:24.332Z,20.27
2019-03-29T12:22:59.683Z,19.73
2019-03-29T12:25:36.514Z,19.70
2019-03-29T12:28:12.621Z,20.57
2019-03-29T12:30:47.727Z,20.73
2019-03-29T12:33:23.069Z,22.07
2019-03-29T12:35:58.385Z,21.37
2019-03-29T12:38:34.750Z,21.53
2019-03-29T12:41:10.084Z,21.50
2019-03-29T12:43:55.604Z,21.70
2019-03-29T12:46:24.307Z,21.30
2019-03-29T12:48:59.672Z,20.37
2019-03-29T12:51:40.520Z,22.70
2019-03-29T12:54:21.375Z,22.82
2019-03-29T12:56:56.600Z,21.50
2019-03-29T12:59:33.071Z,22.00
2019-03-29T13:02:08.524Z,23.17
2019-03-29T13:04:47.045Z,22.20
2019-03-29T13:07:21.012Z,21.03
2019-03-29T13:09:55.596Z,20.43
2019-03-29T13:12:30.279Z,21.73
2019-03-29T13:15:05.146Z,21.70
2019-03-29T13:17:44.576Z,20.83
2019-03-29T13:20:24.810Z,20.35
2019-03-29T13:23:00.059Z,20.37
2019-03-29T13:25:37.267Z,19.63
2019-03-29T13:28:11.346Z,20.90
2019-03-29T13:30:46.422Z,20.03
2019-03-29T13:33:22.092Z,19.90
2019-03-29T13:35:56.075Z,19.47
2019-03-29T13:38:30.623Z,19.57
2019-03-29T13:41:07.037Z,19.80
2019-03-29T13:43:41.114Z,19.93
2019-03-29T13:46:20.508Z,20.45
2019-03-29T13:48:54.351Z,20.87
2019-03-29T13:51:29.018Z,19.37
2019-03-29T13:56:57.663Z,20.75
2019-03-29T13:59:31.878Z,20.20
2019-03-29T14:02:06.568Z,20.50
2019-03-29T14:04:40.863Z,20.43
2019-03-29T14:07:15.745Z,20.37
2019-03-29T14:09:50.425Z,19.80
2019-03-29T14:12:25.405Z,20.30
2019-03-29T14:15:11.636Z,20.40
2019-03-29T14:17:45.929Z,20.33
2019-03-29T14:20:24.189Z,20.00
2019-03-29T14:22:58.602Z,19.77
2019-03-29T14:25:32.968Z,20.80
2019-03-29T14:28:09.022Z,20.03
2019-03-29T14:30:43.806Z,20.83
2019-03-29T14:33:18.297Z,20.07
2019-03-29T14:35:53.203Z,21.10
2019-03-29T14:38:27.851Z,20.90
2019-03-29T14:41:03.363Z,19.77
2019-03-29T14:43:37.365Z,21.33
2019-03-29T14:46:11.715Z,20.47
2019-03-29T14:48:46.012Z,20.63
2019-03-29T14:51:19.965Z,21.93
2019-03-29T14:53:54.804Z,21.75
2019-03-29T14:56:29.947Z,21.07
2019-03-29T14:59:04.096Z,21.80
2019-03-29T15:01:38.804Z,21.43
2019-03-29T15:04:15.763Z,20.87
2019-03-29T15:06:50.565Z,19.53
2019-03-29T15:09:25.301Z,20.68
2019-03-29T15:11:59.101Z,21.07
2019-03-29T15:14:32.868Z,21.43
2019-03-29T15:17:06.814Z,20.40
2019-03-29T15:19:40.625Z,21.33
2019-03-29T15:22:14.147Z,20.70
2019-03-29T15:24:48.619Z,20.48
2019-03-29T15:27:23.972Z,21.63
2019-03-29T15:29:57.648Z,21.43
2019-03-29T15:32:31.399Z,21.07
2019-03-29T15:35:06.167Z,21.63
2019-03-29T15:37:39.938Z,20.67
2019-03-29T15:40:14.092Z,20.88
2019-03-29T15:42:48.749Z,21.97
2019-03-29T15:45:23.343Z,21.47
2019-03-29T15:47:56.859Z,21.47
2019-03-29T15:50:30.548Z,22.13
2019-03-29T15:53:04.605Z,22.00
2019-03-29T15:55:38.736Z,21.93
2019-03-29T15:58:14.531Z,21.43
2019-03-29T16:00:48.797Z,21.80
2019-03-29T16:03:22.107Z,21.67
2019-03-29T16:05:56.398Z,21.47
2019-03-29T16:08:31.522Z,19.50
2019-03-29T16:11:09.147Z,20.50
2019-03-29T16:13:42.058Z,21.00
2019-03-29T16:16:15.523Z,20.63
2019-03-29T16:18:49.293Z,20.40
2019-03-29T16:21:22.923Z,20.70
2019-03-29T16:23:57.790Z,20.63
2019-03-29T16:26:31.368Z,20.83
2019-03-29T16:29:04.890Z,20.67
2019-03-29T16:31:38.833Z,21.00
2019-03-29T16:34:12.331Z,20.50
2019-03-29T16:36:47.755Z,20.40
2019-03-29T16:39:21.518Z,20.03
2019-03-29T16:41:55.276Z,20.17
2019-03-29T16:44:28.756Z,20.67
2019-03-29T16:47:03.780Z,20.47
2019-03-29T16:49:37.865Z,20.53
2019-03-29T16:52:11.735Z,20.40
2019-03-29T16:54:45.103Z,20.30
2019-03-29T16:57:19.190Z,19.37
2019-03-29T16:59:52.833Z,20.33
2019-03-29T17:02:29.102Z,19.73
2019-03-29T17:05:02.822Z,19.87
2019-03-29T17:07:36.150Z,19.95
2019-03-29T17:10:13.118Z,19.53
2019-03-29T17:12:52.128Z,19.97
2019-03-29T17:15:24.381Z,20.23
2019-03-29T17:17:58.040Z,20.13
2019-03-29T17:20:32.047Z,19.97
2019-03-29T17:23:07.323Z,19.17
2019-03-29T17:25:40.846Z,18.77
2019-03-29T17:28:14.596Z,19.93
2019-03-29T17:30:47.954Z,19.67
2019-03-29T17:33:22.493Z,20.43
2019-03-29T17:35:56.534Z,18.60
2019-03-29T17:38:29.984Z,19.23
2019-03-29T17:41:03.692Z,19.23
2019-03-29T17:43:37.357Z,19.27
2019-03-29T17:46:16.632Z,19.67
2019-03-29T17:48:45.650Z,18.50
2019-03-29T17:51:19.561Z,18.77
2019-03-29T17:53:53.226Z,18.77
2019-03-29T17:56:27.018Z,18.73
2019-03-29T17:59:00.482Z,18.45
2019-03-29T18:01:34.987Z,18.30
2019-03-29T18:04:08.764Z,19.37
2019-03-29T18:06:42.691Z,17.90
2019-03-29T18:09:16.326Z,18.40
2019-03-29T18:11:49.667Z,18.67
2019-03-29T18:14:23.483Z,17.67
2019-03-29T18:16:57.411Z,18.97
2019-03-29T18:19:32.445Z,19.57
2019-03-29T18:22:06.318Z,19.20
2019-03-29T18:24:40.063Z,19.70
2019-03-29T18:27:13.981Z,18.43
2019-03-29T18:29:47.473Z,17.83
2019-03-29T18:32:22.418Z,18.47
2019-03-29T18:34:55.893Z,18.47
2019-03-29T18:37:30.555Z,17.55
2019-03-29T18:40:04.188Z,17.75
2019-03-29T18:42:37.921Z,17.30
2019-03-29T18:45:11.929Z,17.93
2019-03-29T18:47:48.623Z,17.97
2019-03-29T18:50:20.588Z,18.17
2019-03-29T18:52:54.093Z,18.12
2019-03-29T18:55:27.790Z,18.10
2019-03-29T18:58:01.622Z,18.77
2019-03-29T19:00:38.304Z,17.87
2019-03-29T19:03:12.262Z,17.53
2019-03-29T19:05:45.950Z,17.70
2019-03-29T19:08:21.723Z,17.52
2019-03-29T19:10:55.343Z,17.70
2019-03-29T19:13:28.938Z,18.13
2019-03-29T19:16:02.507Z,16.73
2019-03-29T19:18:36.044Z,17.92
2019-03-29T19:21:09.730Z,17.00
2019-03-29T19:23:43.215Z,16.03
2019-03-29T19:26:17.328Z,16.73
2019-03-29T19:28:50.871Z,16.00
2019-03-29T19:31:24.563Z,17.27
2019-03-29T19:33:58.470Z,16.63
2019-03-29T19:36:32.019Z,16.35
2019-03-29T19:39:08.893Z,17.23
2019-03-29T19:41:42.332Z,17.37
2019-03-29T19:44:16.018Z,17.47
2019-03-29T19:46:50.398Z,16.80
2019-03-29T19:49:24.339Z,16.00
2019-03-29T19:51:58.054Z,16.83
2019-03-29T19:54:33.478Z,16.63
2019-03-29T19:57:07.263Z,16.90
2019-03-29T19:59:41.040Z,17.30
2019-03-29T20:02:14.826Z,16.70
2019-03-29T20:04:49.958Z,16.60
2019-03-29T20:07:23.550Z,18.70
2019-03-29T20:09:57.141Z,18.65
2019-03-29T20:12:32.727Z,19.10
2019-03-29T20:15:09.455Z,19.47
2019-03-29T20:17:44.403Z,20.73
2019-03-29T20:20:22.304Z,18.73
2019-03-29T20:22:58.186Z,19.55
2019-03-29T20:25:31.796Z,20.60
2019-03-29T20:28:05.770Z,20.80
2019-03-29T20:30:39.237Z,20.73
2019-03-29T20:33:13.528Z,20.15
2019-03-29T20:35:47.283Z,20.00
2019-03-29T20:38:20.872Z,20.50
2019-03-29T20:40:54.624Z,20.17
2019-03-29T20:43:28.204Z,21.10
2019-03-29T20:46:02.938Z,22.03
2019-03-29T20:48:36.492Z,21.55
2019-03-29T20:51:10.127Z,23.10
2019-03-29T20:53:43.893Z,22.00
2019-03-29T20:56:18.768Z,22.17
2019-03-29T20:58:52.320Z,21.75
2019-03-29T21:01:26.182Z,21.37
2019-03-29T21:03:59.875Z,22.27
2019-03-29T21:06:33.571Z,20.87
2019-03-29T21:09:10.668Z,21.97
2019-03-29T21:11:44.572Z,21.73
2019-03-29T21:14:18.273Z,21.93
2019-03-29T21:16:51.744Z,22.00
2019-03-29T21:19:27.667Z,21.43
2019-03-29T21:22:01.262Z,22.57
2019-03-29T21:24:34.828Z,22.32
2019-03-29T21:27:08.641Z,21.75
2019-03-29T21:29:42.243Z,22.00
2019-03-29T21:32:16.024Z,22.43
2019-03-29T21:34:50.086Z,21.30
2019-03-29T21:37:25.262Z,21.47
2019-03-29T21:40:03.900Z,20.80
2019-03-29T21:42:37.520Z,21.00
2019-03-29T21:45:11.330Z,22.30
2019-03-29T21:47:44.732Z,21.63
2019-03-29T21:50:18.709Z,19.77
2019-03-29T21:52:52.017Z,21.23
2019-03-29T21:55:27.116Z,20.07
2019-03-29T21:58:00.845Z,19.70
2019-03-29T22:00:37.734Z,19.87
2019-03-29T22:03:10.737Z,20.03
2019-03-29T22:05:44.673Z,18.90
2019-03-29T22:08:20.201Z,18.77
2019-03-29T22:10:53.833Z,18.10
2019-03-29T22:13:27.253Z,19.10
2019-03-29T22:16:01.255Z,17.43
2019-03-29T22:18:38.069Z,17.67
2019-03-29T22:21:11.751Z,16.45
2019-03-29T22:23:45.600Z,16.70
2019-03-29T22:26:20.239Z,16.87
2019-03-29T22:28:53.736Z,16.75
2019-03-29T22:31:27.457Z,17.20
2019-03-29T22:34:01.397Z,16.52
2019-03-29T22:36:37.461Z,17.92
2019-03-29T22:39:11.507Z,17.70
2019-03-29T22:41:45.712Z,18.40
2019-03-29T22:44:19.924Z,17.67
2019-03-29T22:46:53.533Z,18.63
2019-03-29T22:49:27.303Z,18.10
2019-03-29T22:52:01.360Z,18.33
2019-03-29T22:54:37.537Z,18.87
2019-03-29T22:57:13.680Z,17.83
2019-03-29T22:59:47.412Z,17.63
2019-03-29T23:02:21.078Z,19.53
2019-03-29T23:04:54.925Z,19.13
2019-03-29T23:07:28.195Z,19.17
2019-03-29T23:10:02.107Z,18.67
2019-03-29T23:12:43.484Z,20.30
2019-03-29T23:15:17.604Z,20.10
2019-03-29T23:17:51.234Z,17.80
2019-03-29T23:20:25.290Z,17.77
2019-03-29T23:22:59.634Z,17.00
2019-03-29T23:25:34.558Z,18.82
2019-03-29T23:28:10.388Z,18.33
2019-03-29T23:30:44.929Z,17.80
2019-03-29T23:33:20.689Z,17.40
2019-03-29T23:35:55.800Z,18.00
2019-03-29T23:38:29.727Z,17.67
2019-03-29T23:41:05.519Z,17.48
2019-03-29T23:43:39.454Z,17.40
2019-03-29T23:46:13.972Z,17.20
2019-03-29T23:48:48.243Z,16.90
2019-03-29T23:51:23.624Z,19.90
2019-03-29T23:53:58.662Z,18.97
2019-03-29T23:56:33.645Z,19.50
2019-03-29T23:59:08.066Z,19.60
